sensor_id;sensor_type;location;lat;lon;timestamp;P1;durP1;ratioP1;P2;durP2;ratioP2
43819;SDS011;67762;52.476;6.046;2023-07-09T00:01:12;1999.90;;;999.90;;
43819;SDS011;67762;52.476;6.046;2023-07-09T00:03:39;1999.90;;;999.90;;
43819;SDS011;67762;52.476;6.046;2023-07-09T00:06:07;1999.90;;;999.90;;
43819;SDS011;67762;52.476;6.046;2023-07-09T00:08:33;1999.90;;;999.90;;
43819;SDS011;67762;52.476;6.046;2023-07-09T00:10:59;1999.90;;;999.90;;
43819;SDS011;67762;52.476;6.046;2023-07-09T00:13:25;1999.90;;;999.90;;
43819;SDS011;67762;52.476;6.046;2023-07-09T00:15:54;1999.90;;;999.90;;
43819;SDS011;67762;52.476;6.046;2023-07-09T00:18:22;1999.90;;;999.90;;
43819;SDS011;67762;52.476;6.046;2023-07-09T00:20:48;1999.90;;;999.90;;
43819;SDS011;67762;52.476;6.046;2023-07-09T00:23:14;1999.90;;;999.90;;
43819;SDS011;67762;52.476;6.046;2023-07-09T00:25:42;1999.90;;;999.90;;
43819;SDS011;67762;52.476;6.046;2023-07-09T00:28:13;1999.90;;;999.90;;
43819;SDS011;67762;52.476;6.046;2023-07-09T00:30:39;1999.90;;;999.90;;
43819;SDS011;67762;52.476;6.046;2023-07-09T00:33:06;1999.90;;;999.90;;
43819;SDS011;67762;52.476;6.046;2023-07-09T00:35:36;1999.90;;;999.90;;
43819;SDS011;67762;52.476;6.046;2023-07-09T00:38:02;1999.90;;;999.90;;
43819;SDS011;67762;52.476;6.046;2023-07-09T00:40:29;1999.90;;;999.90;;
43819;SDS011;67762;52.476;6.046;2023-07-09T00:42:55;1999.90;;;999.90;;
43819;SDS011;67762;52.476;6.046;2023-07-09T00:45:25;1999.90;;;999.90;;
43819;SDS011;67762;52.476;6.046;2023-07-09T00:47:56;1999.90;;;999.90;;
43819;SDS011;67762;52.476;6.046;2023-07-09T00:50:29;1999.90;;;999.90;;
43819;SDS011;67762;52.476;6.046;2023-07-09T00:53:01;1999.90;;;999.90;;
43819;SDS011;67762;52.476;6.046;2023-07-09T00:55:36;1999.90;;;999.90;;
43819;SDS011;67762;52.476;6.046;2023-07-09T00:58:09;1999.90;;;999.90;;
43819;SDS011;67762;52.476;6.046;2023-07-09T01:00:45;1999.90;;;999.90;;
43819;SDS011;67762;52.476;6.046;2023-07-09T01:04:03;1999.90;;;999.90;;
43819;SDS011;67762;52.476;6.046;2023-07-09T01:06:08;1999.90;;;999.90;;
43819;SDS011;67762;52.476;6.046;2023-07-09T01:08:36;1999.90;;;999.90;;
43819;SDS011;67762;52.476;6.046;2023-07-09T01:11:20;1999.90;;;999.90;;
43819;SDS011;67762;52.476;6.046;2023-07-09T01:13:47;1999.90;;;999.90;;
43819;SDS011;67762;52.476;6.046;2023-07-09T01:16:16;1999.90;;;999.90;;
43819;SDS011;67762;52.476;6.046;2023-07-09T01:18:52;1999.90;;;999.90;;
43819;SDS011;67762;52.476;6.046;2023-07-09T01:21:17;1999.90;;;999.90;;
43819;SDS011;67762;52.476;6.046;2023-07-09T01:23:45;1999.90;;;999.90;;
43819;SDS011;67762;52.476;6.046;2023-07-09T01:26:13;1999.90;;;999.90;;
43819;SDS011;67762;52.476;6.046;2023-07-09T01:28:40;1999.90;;;999.90;;
43819;SDS011;67762;52.476;6.046;2023-07-09T01:31:10;1999.90;;;999.90;;
43819;SDS011;67762;52.476;6.046;2023-07-09T01:33:37;1999.90;;;999.90;;
43819;SDS011;67762;52.476;6.046;2023-07-09T01:36:05;1999.90;;;999.90;;
43819;SDS011;67762;52.476;6.046;2023-07-09T01:38:33;1999.90;;;999.90;;
43819;SDS011;67762;52.476;6.046;2023-07-09T01:40:59;1999.90;;;999.90;;
43819;SDS011;67762;52.476;6.046;2023-07-09T01:43:27;1999.90;;;999.90;;
43819;SDS011;67762;52.476;6.046;2023-07-09T01:45:54;1999.90;;;999.90;;
43819;SDS011;67762;52.476;6.046;2023-07-09T01:48:23;1999.90;;;999.90;;
43819;SDS011;67762;52.476;6.046;2023-07-09T01:50:50;1999.90;;;999.90;;
43819;SDS011;67762;52.476;6.046;2023-07-09T01:53:18;1999.90;;;999.90;;
43819;SDS011;67762;52.476;6.046;2023-07-09T01:55:49;1999.90;;;999.90;;
43819;SDS011;67762;52.476;6.046;2023-07-09T01:58:15;1999.90;;;999.90;;
43819;SDS011;67762;52.476;6.046;2023-07-09T02:00:41;1999.90;;;999.90;;
43819;SDS011;67762;52.476;6.046;2023-07-09T02:03:07;1999.90;;;999.90;;
43819;SDS011;67762;52.476;6.046;2023-07-09T02:05:35;1999.90;;;999.90;;
43819;SDS011;67762;52.476;6.046;2023-07-09T02:08:01;1999.90;;;999.90;;
43819;SDS011;67762;52.476;6.046;2023-07-09T02:10:30;1999.90;;;999.90;;
43819;SDS011;67762;52.476;6.046;2023-07-09T02:12:55;1999.90;;;999.90;;
43819;SDS011;67762;52.476;6.046;2023-07-09T02:15:21;1999.90;;;999.90;;
43819;SDS011;67762;52.476;6.046;2023-07-09T02:17:47;1999.90;;;999.90;;
43819;SDS011;67762;52.476;6.046;2023-07-09T02:20:13;1999.90;;;999.90;;
43819;SDS011;67762;52.476;6.046;2023-07-09T02:22:39;1999.90;;;999.90;;
43819;SDS011;67762;52.476;6.046;2023-07-09T02:25:06;1999.90;;;999.90;;
43819;SDS011;67762;52.476;6.046;2023-07-09T02:27:33;1999.90;;;999.90;;
43819;SDS011;67762;52.476;6.046;2023-07-09T02:30:00;1999.90;;;999.90;;
43819;SDS011;67762;52.476;6.046;2023-07-09T02:32:26;1999.90;;;999.90;;
43819;SDS011;67762;52.476;6.046;2023-07-09T02:34:52;1999.90;;;999.90;;
43819;SDS011;67762;52.476;6.046;2023-07-09T02:37:23;1999.90;;;999.90;;
43819;SDS011;67762;52.476;6.046;2023-07-09T02:39:50;1999.90;;;999.90;;
43819;SDS011;67762;52.476;6.046;2023-07-09T02:42:17;1999.90;;;999.90;;
43819;SDS011;67762;52.476;6.046;2023-07-09T02:44:44;1999.90;;;999.90;;
43819;SDS011;67762;52.476;6.046;2023-07-09T02:47:11;1999.90;;;999.90;;
43819;SDS011;67762;52.476;6.046;2023-07-09T02:49:37;1999.90;;;999.90;;
43819;SDS011;67762;52.476;6.046;2023-07-09T02:52:04;1999.90;;;999.90;;
43819;SDS011;67762;52.476;6.046;2023-07-09T02:54:31;1999.90;;;999.90;;
43819;SDS011;67762;52.476;6.046;2023-07-09T02:56:56;1999.90;;;999.90;;
43819;SDS011;67762;52.476;6.046;2023-07-09T02:59:22;1999.90;;;999.90;;
43819;SDS011;67762;52.476;6.046;2023-07-09T03:01:48;1999.90;;;999.90;;
43819;SDS011;67762;52.476;6.046;2023-07-09T03:04:14;1999.90;;;999.90;;
43819;SDS011;67762;52.476;6.046;2023-07-09T03:06:40;1999.90;;;999.90;;
43819;SDS011;67762;52.476;6.046;2023-07-09T03:09:05;1999.90;;;999.90;;
43819;SDS011;67762;52.476;6.046;2023-07-09T03:11:32;1999.90;;;999.90;;
43819;SDS011;67762;52.476;6.046;2023-07-09T03:14:00;1999.90;;;999.90;;
43819;SDS011;67762;52.476;6.046;2023-07-09T03:16:27;1999.90;;;999.90;;
43819;SDS011;67762;52.476;6.046;2023-07-09T03:18:55;1999.90;;;999.90;;
43819;SDS011;67762;52.476;6.046;2023-07-09T03:21:21;1999.90;;;999.90;;
43819;SDS011;67762;52.476;6.046;2023-07-09T03:23:47;1999.90;;;999.90;;
43819;SDS011;67762;52.476;6.046;2023-07-09T03:26:13;1999.90;;;999.90;;
43819;SDS011;67762;52.476;6.046;2023-07-09T03:28:40;1999.90;;;999.90;;
43819;SDS011;67762;52.476;6.046;2023-07-09T03:31:06;1999.90;;;999.90;;
43819;SDS011;67762;52.476;6.046;2023-07-09T03:33:32;1999.90;;;999.90;;
43819;SDS011;67762;52.476;6.046;2023-07-09T03:35:57;1999.90;;;999.90;;
43819;SDS011;67762;52.476;6.046;2023-07-09T03:38:23;1999.90;;;999.90;;
43819;SDS011;67762;52.476;6.046;2023-07-09T03:40:50;1999.90;;;999.90;;
43819;SDS011;67762;52.476;6.046;2023-07-09T03:43:17;1999.90;;;999.90;;
43819;SDS011;67762;52.476;6.046;2023-07-09T03:45:43;1999.90;;;999.90;;
43819;SDS011;67762;52.476;6.046;2023-07-09T03:48:09;1999.90;;;999.90;;
43819;SDS011;67762;52.476;6.046;2023-07-09T03:50:35;1999.90;;;999.90;;
43819;SDS011;67762;52.476;6.046;2023-07-09T03:53:01;1999.90;;;999.90;;
43819;SDS011;67762;52.476;6.046;2023-07-09T03:55:27;1999.90;;;999.90;;
43819;SDS011;67762;52.476;6.046;2023-07-09T03:57:53;1999.90;;;999.90;;
43819;SDS011;67762;52.476;6.046;2023-07-09T04:00:19;1999.90;;;999.90;;
43819;SDS011;67762;52.476;6.046;2023-07-09T04:02:46;1999.90;;;999.90;;
43819;SDS011;67762;52.476;6.046;2023-07-09T04:05:12;1999.90;;;999.90;;
43819;SDS011;67762;52.476;6.046;2023-07-09T04:07:38;1999.90;;;999.90;;
43819;SDS011;67762;52.476;6.046;2023-07-09T04:10:05;1999.90;;;999.90;;
43819;SDS011;67762;52.476;6.046;2023-07-09T04:12:31;1999.90;;;999.90;;
43819;SDS011;67762;52.476;6.046;2023-07-09T04:14:57;1999.90;;;999.90;;
43819;SDS011;67762;52.476;6.046;2023-07-09T04:17:22;1999.90;;;999.90;;
43819;SDS011;67762;52.476;6.046;2023-07-09T04:19:49;1999.90;;;999.90;;
43819;SDS011;67762;52.476;6.046;2023-07-09T04:22:15;1999.90;;;999.90;;
43819;SDS011;67762;52.476;6.046;2023-07-09T04:24:41;1999.90;;;999.90;;
43819;SDS011;67762;52.476;6.046;2023-07-09T04:27:07;1999.90;;;999.90;;
43819;SDS011;67762;52.476;6.046;2023-07-09T04:29:33;1999.90;;;999.90;;
43819;SDS011;67762;52.476;6.046;2023-07-09T04:32:01;1999.90;;;999.90;;
43819;SDS011;67762;52.476;6.046;2023-07-09T04:34:27;1999.90;;;999.90;;
43819;SDS011;67762;52.476;6.046;2023-07-09T04:36:53;1999.90;;;999.90;;
43819;SDS011;67762;52.476;6.046;2023-07-09T04:39:18;1999.90;;;999.90;;
43819;SDS011;67762;52.476;6.046;2023-07-09T04:41:44;1999.90;;;999.90;;
43819;SDS011;67762;52.476;6.046;2023-07-09T04:44:10;1999.90;;;999.90;;
43819;SDS011;67762;52.476;6.046;2023-07-09T04:46:35;1999.90;;;999.90;;
43819;SDS011;67762;52.476;6.046;2023-07-09T04:49:01;1999.90;;;999.90;;
43819;SDS011;67762;52.476;6.046;2023-07-09T04:51:27;1999.90;;;999.90;;
43819;SDS011;67762;52.476;6.046;2023-07-09T04:53:52;1999.90;;;999.90;;
43819;SDS011;67762;52.476;6.046;2023-07-09T04:56:18;1999.90;;;999.90;;
43819;SDS011;67762;52.476;6.046;2023-07-09T04:58:44;1999.90;;;999.90;;
43819;SDS011;67762;52.476;6.046;2023-07-09T05:01:10;1999.90;;;999.90;;
43819;SDS011;67762;52.476;6.046;2023-07-09T05:03:36;1999.90;;;999.90;;
43819;SDS011;67762;52.476;6.046;2023-07-09T05:06:04;1999.90;;;999.90;;
43819;SDS011;67762;52.476;6.046;2023-07-09T05:08:30;1999.90;;;999.90;;
43819;SDS011;67762;52.476;6.046;2023-07-09T05:10:56;1999.90;;;999.90;;
43819;SDS011;67762;52.476;6.046;2023-07-09T05:13:23;1999.90;;;999.90;;
43819;SDS011;67762;52.476;6.046;2023-07-09T05:15:50;1999.90;;;999.90;;
43819;SDS011;67762;52.476;6.046;2023-07-09T05:18:16;1999.90;;;999.90;;
43819;SDS011;67762;52.476;6.046;2023-07-09T05:20:42;1999.90;;;999.90;;
43819;SDS011;67762;52.476;6.046;2023-07-09T05:23:09;1999.90;;;999.90;;
43819;SDS011;67762;52.476;6.046;2023-07-09T05:25:36;1999.90;;;999.90;;
43819;SDS011;67762;52.476;6.046;2023-07-09T05:28:02;1999.90;;;999.90;;
43819;SDS011;67762;52.476;6.046;2023-07-09T05:30:28;1999.90;;;999.90;;
43819;SDS011;67762;52.476;6.046;2023-07-09T05:32:54;1999.90;;;999.90;;
43819;SDS011;67762;52.476;6.046;2023-07-09T05:35:23;1999.90;;;999.90;;
43819;SDS011;67762;52.476;6.046;2023-07-09T05:37:50;1999.90;;;999.90;;
43819;SDS011;67762;52.476;6.046;2023-07-09T05:40:20;1999.90;;;999.90;;
43819;SDS011;67762;52.476;6.046;2023-07-09T05:42:46;1999.90;;;999.90;;
43819;SDS011;67762;52.476;6.046;2023-07-09T05:45:11;1999.90;;;999.90;;
43819;SDS011;67762;52.476;6.046;2023-07-09T05:47:37;1999.90;;;999.90;;
43819;SDS011;67762;52.476;6.046;2023-07-09T05:50:03;1999.90;;;999.90;;
43819;SDS011;67762;52.476;6.046;2023-07-09T05:52:29;1999.90;;;999.90;;
43819;SDS011;67762;52.476;6.046;2023-07-09T05:54:55;1999.90;;;999.90;;
43819;SDS011;67762;52.476;6.046;2023-07-09T05:57:21;1999.90;;;999.90;;
43819;SDS011;67762;52.476;6.046;2023-07-09T05:59:47;1999.90;;;999.90;;
43819;SDS011;67762;52.476;6.046;2023-07-09T06:02:17;1999.90;;;999.90;;
43819;SDS011;67762;52.476;6.046;2023-07-09T06:04:45;1999.90;;;999.90;;
43819;SDS011;67762;52.476;6.046;2023-07-09T06:07:11;1999.90;;;999.90;;
43819;SDS011;67762;52.476;6.046;2023-07-09T06:09:39;1999.90;;;999.90;;
43819;SDS011;67762;52.476;6.046;2023-07-09T06:12:05;1999.90;;;999.90;;
43819;SDS011;67762;52.476;6.046;2023-07-09T06:14:31;1999.90;;;999.90;;
43819;SDS011;67762;52.476;6.046;2023-07-09T06:16:58;1999.90;;;999.90;;
43819;SDS011;67762;52.476;6.046;2023-07-09T06:19:25;1999.90;;;999.90;;
43819;SDS011;67762;52.476;6.046;2023-07-09T06:21:50;1999.90;;;999.90;;
43819;SDS011;67762;52.476;6.046;2023-07-09T06:24:16;1999.90;;;999.90;;
43819;SDS011;67762;52.476;6.046;2023-07-09T06:26:42;1999.90;;;999.90;;
43819;SDS011;67762;52.476;6.046;2023-07-09T06:29:08;1999.90;;;999.90;;
43819;SDS011;67762;52.476;6.046;2023-07-09T06:31:34;1999.90;;;999.90;;
43819;SDS011;67762;52.476;6.046;2023-07-09T06:34:01;1999.90;;;999.90;;
43819;SDS011;67762;52.476;6.046;2023-07-09T06:36:27;1999.90;;;999.90;;
43819;SDS011;67762;52.476;6.046;2023-07-09T06:38:52;1999.90;;;999.90;;
43819;SDS011;67762;52.476;6.046;2023-07-09T06:41:18;1999.90;;;999.90;;
43819;SDS011;67762;52.476;6.046;2023-07-09T06:43:44;1999.90;;;999.90;;
43819;SDS011;67762;52.476;6.046;2023-07-09T06:46:11;1999.90;;;999.90;;
43819;SDS011;67762;52.476;6.046;2023-07-09T06:48:38;1999.90;;;999.90;;
43819;SDS011;67762;52.476;6.046;2023-07-09T06:51:04;1999.90;;;999.90;;
43819;SDS011;67762;52.476;6.046;2023-07-09T06:53:30;1999.90;;;999.90;;
43819;SDS011;67762;52.476;6.046;2023-07-09T06:55:56;1999.90;;;999.90;;
43819;SDS011;67762;52.476;6.046;2023-07-09T06:58:28;1999.90;;;999.90;;
43819;SDS011;67762;52.476;6.046;2023-07-09T07:00:56;1999.90;;;999.90;;
43819;SDS011;67762;52.476;6.046;2023-07-09T07:03:23;1999.90;;;999.90;;
43819;SDS011;67762;52.476;6.046;2023-07-09T07:05:50;1999.90;;;999.90;;
43819;SDS011;67762;52.476;6.046;2023-07-09T07:08:19;1999.90;;;999.90;;
43819;SDS011;67762;52.476;6.046;2023-07-09T07:10:48;1999.90;;;999.90;;
43819;SDS011;67762;52.476;6.046;2023-07-09T07:13:15;1999.90;;;999.90;;
43819;SDS011;67762;52.476;6.046;2023-07-09T07:15:41;1999.90;;;999.90;;
43819;SDS011;67762;52.476;6.046;2023-07-09T07:18:07;1999.90;;;999.90;;
43819;SDS011;67762;52.476;6.046;2023-07-09T07:20:34;1999.90;;;999.90;;
43819;SDS011;67762;52.476;6.046;2023-07-09T07:23:00;1999.90;;;999.90;;
43819;SDS011;67762;52.476;6.046;2023-07-09T07:25:26;1999.90;;;999.90;;
43819;SDS011;67762;52.476;6.046;2023-07-09T07:27:51;1999.90;;;999.90;;
43819;SDS011;67762;52.476;6.046;2023-07-09T07:30:18;1999.90;;;999.90;;
43819;SDS011;67762;52.476;6.046;2023-07-09T07:32:45;1999.90;;;999.90;;
43819;SDS011;67762;52.476;6.046;2023-07-09T07:35:13;1999.90;;;999.90;;
43819;SDS011;67762;52.476;6.046;2023-07-09T07:37:40;1999.90;;;999.90;;
43819;SDS011;67762;52.476;6.046;2023-07-09T07:40:06;1999.90;;;999.90;;
43819;SDS011;67762;52.476;6.046;2023-07-09T07:42:33;1999.90;;;999.90;;
43819;SDS011;67762;52.476;6.046;2023-07-09T07:44:59;1999.90;;;999.90;;
43819;SDS011;67762;52.476;6.046;2023-07-09T07:47:26;1999.90;;;999.90;;
43819;SDS011;67762;52.476;6.046;2023-07-09T07:49:52;1999.90;;;999.90;;
43819;SDS011;67762;52.476;6.046;2023-07-09T07:52:18;1999.90;;;999.90;;
43819;SDS011;67762;52.476;6.046;2023-07-09T07:54:45;1999.90;;;999.90;;
43819;SDS011;67762;52.476;6.046;2023-07-09T07:57:10;1999.90;;;999.90;;
43819;SDS011;67762;52.476;6.046;2023-07-09T07:59:37;1999.90;;;999.90;;
43819;SDS011;67762;52.476;6.046;2023-07-09T08:02:03;1999.90;;;999.90;;
43819;SDS011;67762;52.476;6.046;2023-07-09T08:04:31;1999.90;;;999.90;;
43819;SDS011;67762;52.476;6.046;2023-07-09T08:06:57;1999.90;;;999.90;;
43819;SDS011;67762;52.476;6.046;2023-07-09T08:09:24;1999.90;;;999.90;;
43819;SDS011;67762;52.476;6.046;2023-07-09T08:11:50;1999.90;;;999.90;;
43819;SDS011;67762;52.476;6.046;2023-07-09T08:14:16;1999.90;;;999.90;;
43819;SDS011;67762;52.476;6.046;2023-07-09T08:16:42;1999.90;;;999.90;;
43819;SDS011;67762;52.476;6.046;2023-07-09T08:19:07;1999.90;;;999.90;;
43819;SDS011;67762;52.476;6.046;2023-07-09T08:21:33;1999.90;;;999.90;;
43819;SDS011;67762;52.476;6.046;2023-07-09T08:23:59;1999.90;;;999.90;;
43819;SDS011;67762;52.476;6.046;2023-07-09T08:26:26;1999.90;;;999.90;;
43819;SDS011;67762;52.476;6.046;2023-07-09T08:28:52;1999.90;;;999.90;;
43819;SDS011;67762;52.476;6.046;2023-07-09T08:31:19;1999.90;;;999.90;;
43819;SDS011;67762;52.476;6.046;2023-07-09T08:33:45;1999.90;;;999.90;;
43819;SDS011;67762;52.476;6.046;2023-07-09T08:36:10;1999.90;;;999.90;;
43819;SDS011;67762;52.476;6.046;2023-07-09T08:38:36;1999.90;;;999.90;;
43819;SDS011;67762;52.476;6.046;2023-07-09T08:41:07;1999.90;;;999.90;;
43819;SDS011;67762;52.476;6.046;2023-07-09T08:43:51;1999.90;;;999.90;;
43819;SDS011;67762;52.476;6.046;2023-07-09T08:46:30;1999.90;;;999.90;;
43819;SDS011;67762;52.476;6.046;2023-07-09T08:48:57;1999.90;;;999.90;;
43819;SDS011;67762;52.476;6.046;2023-07-09T08:53:58;1999.90;;;999.90;;
43819;SDS011;67762;52.476;6.046;2023-07-09T08:56:27;1999.90;;;999.90;;
43819;SDS011;67762;52.476;6.046;2023-07-09T08:58:56;1999.90;;;999.90;;
43819;SDS011;67762;52.476;6.046;2023-07-09T09:01:31;1999.90;;;999.90;;
43819;SDS011;67762;52.476;6.046;2023-07-09T09:04:13;1999.90;;;999.90;;
43819;SDS011;67762;52.476;6.046;2023-07-09T09:06:46;1999.90;;;999.90;;
43819;SDS011;67762;52.476;6.046;2023-07-09T09:17:00;1999.90;;;999.90;;
43819;SDS011;67762;52.476;6.046;2023-07-09T09:19:32;88.90;;;83.82;;
43819;SDS011;67762;52.476;6.046;2023-07-09T09:22:04;1999.90;;;999.90;;
43819;SDS011;67762;52.476;6.046;2023-07-09T09:27:02;1999.90;;;999.90;;
43819;SDS011;67762;52.476;6.046;2023-07-09T09:29:28;1999.90;;;999.90;;
43819;SDS011;67762;52.476;6.046;2023-07-09T09:31:55;1999.90;;;999.90;;
43819;SDS011;67762;52.476;6.046;2023-07-09T09:34:25;1999.90;;;999.90;;
43819;SDS011;67762;52.476;6.046;2023-07-09T09:36:53;112.70;;;106.50;;
43819;SDS011;67762;52.476;6.046;2023-07-09T09:39:20;1999.90;;;999.90;;
43819;SDS011;67762;52.476;6.046;2023-07-09T09:41:51;137.23;;;129.98;;
43819;SDS011;67762;52.476;6.046;2023-07-09T09:44:26;1999.90;;;999.90;;
43819;SDS011;67762;52.476;6.046;2023-07-09T09:46:55;126.10;;;118.85;;
43819;SDS011;67762;52.476;6.046;2023-07-09T09:49:21;77.13;;;72.45;;
43819;SDS011;67762;52.476;6.046;2023-07-09T09:51:47;59.65;;;56.08;;
43819;SDS011;67762;52.476;6.046;2023-07-09T09:54:18;117.88;;;111.45;;
43819;SDS011;67762;52.476;6.046;2023-07-09T09:56:52;60.10;;;56.60;;
43819;SDS011;67762;52.476;6.046;2023-07-09T09:59:40;61.03;;;57.42;;
43819;SDS011;67762;52.476;6.046;2023-07-09T10:02:15;64.97;;;61.15;;
43819;SDS011;67762;52.476;6.046;2023-07-09T10:04:46;64.68;;;60.85;;
43819;SDS011;67762;52.476;6.046;2023-07-09T10:07:15;58.80;;;55.17;;
43819;SDS011;67762;52.476;6.046;2023-07-09T10:09:55;69.50;;;65.40;;
43819;SDS011;67762;52.476;6.046;2023-07-09T10:23:48;53.08;;;49.72;;
43819;SDS011;67762;52.476;6.046;2023-07-09T10:26:47;81.10;;;76.47;;
43819;SDS011;67762;52.476;6.046;2023-07-09T10:29:26;65.65;;;61.55;;
43819;SDS011;67762;52.476;6.046;2023-07-09T10:32:08;63.83;;;60.05;;
43819;SDS011;67762;52.476;6.046;2023-07-09T10:39:47;60.15;;;56.13;;
43819;SDS011;67762;52.476;6.046;2023-07-09T10:42:27;74.18;;;69.82;;
43819;SDS011;67762;52.476;6.046;2023-07-09T10:44:57;53.95;;;50.63;;
43819;SDS011;67762;52.476;6.046;2023-07-09T10:49:58;51.75;;;48.30;;
43819;SDS011;67762;52.476;6.046;2023-07-09T10:52:28;49.13;;;46.22;;
43819;SDS011;67762;52.476;6.046;2023-07-09T10:55:41;50.55;;;47.25;;
43819;SDS011;67762;52.476;6.046;2023-07-09T10:58:00;48.80;;;45.85;;
43819;SDS011;67762;52.476;6.046;2023-07-09T11:00:36;50.35;;;47.25;;
43819;SDS011;67762;52.476;6.046;2023-07-09T11:03:14;49.47;;;45.97;;
43819;SDS011;67762;52.476;6.046;2023-07-09T11:05:43;48.05;;;45.05;;
43819;SDS011;67762;52.476;6.046;2023-07-09T11:08:11;51.70;;;48.10;;
43819;SDS011;67762;52.476;6.046;2023-07-09T11:10:56;46.47;;;43.60;;
43819;SDS011;67762;52.476;6.046;2023-07-09T11:13:36;50.33;;;47.28;;
43819;SDS011;67762;52.476;6.046;2023-07-09T11:16:06;42.20;;;39.67;;
43819;SDS011;67762;52.476;6.046;2023-07-09T11:18:35;48.33;;;45.17;;
43819;SDS011;67762;52.476;6.046;2023-07-09T11:21:03;56.05;;;52.67;;
43819;SDS011;67762;52.476;6.046;2023-07-09T11:23:39;51.05;;;47.67;;
43819;SDS011;67762;52.476;6.046;2023-07-09T11:26:15;52.95;;;49.85;;
43819;SDS011;67762;52.476;6.046;2023-07-09T11:33:59;54.13;;;50.45;;
43819;SDS011;67762;52.476;6.046;2023-07-09T11:36:29;53.30;;;50.05;;
43819;SDS011;67762;52.476;6.046;2023-07-09T11:38:56;52.55;;;49.30;;
43819;SDS011;67762;52.476;6.046;2023-07-09T11:41:37;73.15;;;68.85;;
43819;SDS011;67762;52.476;6.046;2023-07-09T11:44:11;57.90;;;54.45;;
43819;SDS011;67762;52.476;6.046;2023-07-09T11:47:07;55.78;;;52.22;;
43819;SDS011;67762;52.476;6.046;2023-07-09T11:52:32;60.70;;;57.22;;
43819;SDS011;67762;52.476;6.046;2023-07-09T11:55:01;59.47;;;55.67;;
43819;SDS011;67762;52.476;6.046;2023-07-09T11:57:39;67.82;;;63.83;;
43819;SDS011;67762;52.476;6.046;2023-07-09T12:00:05;61.42;;;57.65;;
43819;SDS011;67762;52.476;6.046;2023-07-09T12:02:37;61.35;;;57.75;;
43819;SDS011;67762;52.476;6.046;2023-07-09T12:05:03;86.10;;;81.35;;
43819;SDS011;67762;52.476;6.046;2023-07-09T12:07:30;55.78;;;52.47;;
43819;SDS011;67762;52.476;6.046;2023-07-09T12:09:55;53.15;;;50.00;;
43819;SDS011;67762;52.476;6.046;2023-07-09T12:12:23;71.38;;;67.13;;
43819;SDS011;67762;52.476;6.046;2023-07-09T12:14:50;67.28;;;63.15;;
43819;SDS011;67762;52.476;6.046;2023-07-09T12:17:17;56.30;;;53.00;;
43819;SDS011;67762;52.476;6.046;2023-07-09T12:19:43;59.55;;;55.97;;
43819;SDS011;67762;52.476;6.046;2023-07-09T12:22:10;54.05;;;50.20;;
43819;SDS011;67762;52.476;6.046;2023-07-09T12:24:42;56.38;;;52.90;;
43819;SDS011;67762;52.476;6.046;2023-07-09T12:27:20;56.65;;;53.00;;
43819;SDS011;67762;52.476;6.046;2023-07-09T12:29:51;53.70;;;50.40;;
43819;SDS011;67762;52.476;6.046;2023-07-09T12:32:19;61.40;;;57.63;;
43819;SDS011;67762;52.476;6.046;2023-07-09T12:34:51;54.10;;;50.83;;
43819;SDS011;67762;52.476;6.046;2023-07-09T12:37:18;54.65;;;51.13;;
43819;SDS011;67762;52.476;6.046;2023-07-09T12:39:46;50.33;;;47.30;;
43819;SDS011;67762;52.476;6.046;2023-07-09T12:42:17;55.78;;;52.42;;
43819;SDS011;67762;52.476;6.046;2023-07-09T12:44:44;65.18;;;61.40;;
43819;SDS011;67762;52.476;6.046;2023-07-09T12:47:15;54.17;;;50.80;;
43819;SDS011;67762;52.476;6.046;2023-07-09T12:49:43;58.60;;;55.15;;
43819;SDS011;67762;52.476;6.046;2023-07-09T12:52:13;94.75;;;89.18;;
43819;SDS011;67762;52.476;6.046;2023-07-09T12:54:56;1999.90;;;999.90;;
43819;SDS011;67762;52.476;6.046;2023-07-09T12:57:24;1999.90;;;999.90;;
43819;SDS011;67762;52.476;6.046;2023-07-09T12:59:51;1999.90;;;999.90;;
43819;SDS011;67762;52.476;6.046;2023-07-09T13:02:23;1999.90;;;999.90;;
43819;SDS011;67762;52.476;6.046;2023-07-09T13:04:57;1999.90;;;999.90;;
43819;SDS011;67762;52.476;6.046;2023-07-09T13:07:27;1999.90;;;999.90;;
43819;SDS011;67762;52.476;6.046;2023-07-09T13:10:03;1999.90;;;999.90;;
43819;SDS011;67762;52.476;6.046;2023-07-09T13:12:31;1999.90;;;999.90;;
43819;SDS011;67762;52.476;6.046;2023-07-09T13:14:58;1999.90;;;999.90;;
43819;SDS011;67762;52.476;6.046;2023-07-09T13:17:27;1999.90;;;999.90;;
43819;SDS011;67762;52.476;6.046;2023-07-09T13:19:54;1999.90;;;999.90;;
43819;SDS011;67762;52.476;6.046;2023-07-09T13:22:22;1999.90;;;999.90;;
43819;SDS011;67762;52.476;6.046;2023-07-09T13:24:48;1999.90;;;999.90;;
43819;SDS011;67762;52.476;6.046;2023-07-09T13:27:14;1999.90;;;999.90;;
43819;SDS011;67762;52.476;6.046;2023-07-09T13:29:41;1999.90;;;999.90;;
43819;SDS011;67762;52.476;6.046;2023-07-09T13:32:11;1999.90;;;999.90;;
43819;SDS011;67762;52.476;6.046;2023-07-09T13:34:38;1999.90;;;999.90;;
43819;SDS011;67762;52.476;6.046;2023-07-09T13:37:08;1999.90;;;999.90;;
43819;SDS011;67762;52.476;6.046;2023-07-09T13:39:37;1999.90;;;999.90;;
43819;SDS011;67762;52.476;6.046;2023-07-09T13:42:05;1999.90;;;999.90;;
43819;SDS011;67762;52.476;6.046;2023-07-09T13:44:38;1999.90;;;999.90;;
43819;SDS011;67762;52.476;6.046;2023-07-09T13:47:04;1999.90;;;999.90;;
43819;SDS011;67762;52.476;6.046;2023-07-09T13:49:31;1999.90;;;999.90;;
43819;SDS011;67762;52.476;6.046;2023-07-09T13:51:57;1999.90;;;999.90;;
43819;SDS011;67762;52.476;6.046;2023-07-09T13:54:27;1999.90;;;999.90;;
43819;SDS011;67762;52.476;6.046;2023-07-09T13:57:01;1999.90;;;999.90;;
43819;SDS011;67762;52.476;6.046;2023-07-09T13:59:29;1999.90;;;999.90;;
43819;SDS011;67762;52.476;6.046;2023-07-09T14:01:56;1999.90;;;999.90;;
43819;SDS011;67762;52.476;6.046;2023-07-09T14:04:23;1999.90;;;999.90;;
43819;SDS011;67762;52.476;6.046;2023-07-09T14:06:51;1999.90;;;999.90;;
43819;SDS011;67762;52.476;6.046;2023-07-09T14:09:16;1999.90;;;999.90;;
43819;SDS011;67762;52.476;6.046;2023-07-09T14:11:46;1999.90;;;999.90;;
43819;SDS011;67762;52.476;6.046;2023-07-09T14:14:16;1999.90;;;999.90;;
43819;SDS011;67762;52.476;6.046;2023-07-09T14:17:03;1999.90;;;999.90;;
43819;SDS011;67762;52.476;6.046;2023-07-09T14:19:29;1999.90;;;999.90;;
43819;SDS011;67762;52.476;6.046;2023-07-09T14:21:54;1999.90;;;999.90;;
43819;SDS011;67762;52.476;6.046;2023-07-09T14:24:25;1999.90;;;999.90;;
43819;SDS011;67762;52.476;6.046;2023-07-09T14:26:54;1999.90;;;999.90;;
43819;SDS011;67762;52.476;6.046;2023-07-09T14:29:22;1999.90;;;999.90;;
43819;SDS011;67762;52.476;6.046;2023-07-09T14:31:49;1999.90;;;999.90;;
43819;SDS011;67762;52.476;6.046;2023-07-09T14:36:52;1999.90;;;999.90;;
43819;SDS011;67762;52.476;6.046;2023-07-09T14:39:20;1999.90;;;999.90;;
43819;SDS011;67762;52.476;6.046;2023-07-09T14:41:46;1999.90;;;999.90;;